Time;durP1;ratioP1;P1;durP2;ratioP2;P2;SDS_P1;SDS_P2;PMS_P1;PMS_P2;Temp;Humidity;BMP_temperature;BMP_pressure;BME280_temperature;BME280_humidity;BME280_pressure;Samples;Min_cycle;Max_cycle;Signal;HPM_P1;HPM_P2
2023/02/01 00:01:20;;;;;;;;;;;;;;;7.17;100.00;99821.81;5054989;28;19927;-71
2023/02/01 00:03:45;;;;;;;;;;;;;;;6.84;100.00;99815.97;5072567;28;20474;-71
2023/02/01 00:06:10;;;;;;;;;;;;;;;6.92;100.00;99816.78;5072298;28;19916;-71
2023/02/01 00:08:36;;;;;;;;;;;;;;;7.07;100.00;99821.84;5071938;28;19993;-72
2023/02/01 00:11:01;;;;;;;;;;;;;;;6.66;100.00;99807.50;5073295;28;19923;-72
2023/02/01 00:13:33;;;;;;;;;;;;;;;7.11;100.00;99820.97;5071057;28;19916;-72
2023/02/01 00:16:06;;;;;;;;;;;;;;;7.21;100.00;99823.50;5057199;28;20444;-71
2023/02/01 00:18:31;;;;;;;;;;;;;;;7.06;100.00;99809.91;5071894;28;19982;-72
2023/02/01 00:20:56;;;;;;;;;;;;;;;7.23;100.00;99826.88;5055118;28;20351;-71
2023/02/01 00:23:22;;;;;;;;;;;;;;;7.17;100.00;99827.78;5072569;28;19917;-71
2023/02/01 00:25:47;;;;;;;;;;;;;;;7.06;100.00;99820.16;5073890;28;19970;-71
2023/02/01 00:28:12;;;;;;;;;;;;;;;7.02;100.00;99818.44;5053282;28;19919;-71
2023/02/01 00:30:38;;;;;;;;;;;;;;;7.12;100.00;99820.13;5047105;28;19916;-71
2023/02/01 00:33:03;;;;;;;;;;;;;;;7.02;100.00;99807.34;5054225;28;19924;-71
2023/02/01 00:35:28;;;;;;;;;;;;;;;7.34;100.00;99814.88;5071964;28;19967;-72
2023/02/01 00:37:53;;;;;;;;;;;;;;;7.31;100.00;99814.91;5073448;28;19916;-72
2023/02/01 00:40:19;;;;;;;;;;;;;;;7.31;100.00;99822.59;5071521;28;19927;-72
2023/02/01 00:42:44;;;;;;;;;;;;;;;7.44;100.00;99831.91;5071147;28;19916;-71
2023/02/01 00:45:09;;;;;;;;;;;;;;;7.15;100.00;99818.41;5072589;28;19923;-72
2023/02/01 00:47:35;;;;;;;;;;;;;;;7.04;100.00;99816.72;5053649;28;19927;-72
2023/02/01 00:50:00;;;;;;;;;;;;;;;7.18;100.00;99826.06;5072444;28;19920;-71
2023/02/01 00:52:25;;;;;;;;;;;;;;;7.05;100.00;99812.50;5071247;28;19963;-72
2023/02/01 00:54:50;;;;;;;;;;;;;;;7.81;100.00;99825.69;5051503;28;19912;-72
2023/02/01 00:57:15;;;;;;;;;;;;;;;7.35;100.00;99805.50;5071420;28;19920;-72
2023/02/01 00:59:41;;;;;;;;;;;;;;;6.94;100.00;99794.59;5053065;28;19916;-72
2023/02/01 01:02:06;;;;;;;;;;;;;;;7.31;100.00;99814.91;5055492;28;19931;-71
2023/02/01 01:04:31;;;;;;;;;;;;;;;7.22;100.00;99826.03;5071686;28;19947;-72
2023/02/01 01:06:56;;;;;;;;;;;;;;;7.11;100.00;99830.38;5070831;28;20589;-71
2023/02/01 01:09:22;;;;;;;;;;;;;;;7.12;100.00;99834.66;5071007;28;20315;-71
2023/02/01 01:11:47;;;;;;;;;;;;;;;6.82;100.00;99833.91;5071573;28;19920;-72
2023/02/01 01:14:12;;;;;;;;;;;;;;;6.88;100.00;99848.38;5070824;28;19920;-72
2023/02/01 01:16:37;;;;;;;;;;;;;;;7.20;100.00;99880.72;5072227;28;20335;-72
2023/02/01 01:19:03;;;;;;;;;;;;;;;6.77;100.00;99865.50;5051601;28;20342;-71
2023/02/01 01:21:28;;;;;;;;;;;;;;;6.99;100.00;99877.38;5071003;28;19924;-71
2023/02/01 01:23:53;;;;;;;;;;;;;;;6.56;100.00;99857.00;5052624;28;19920;-71
2023/02/01 01:26:19;;;;;;;;;;;;;;;6.70;100.00;99870.66;5073016;28;20519;-71
2023/02/01 01:28:44;;;;;;;;;;;;;;;6.76;100.00;99851.84;5070304;28;20022;-70
2023/02/01 01:31:10;;;;;;;;;;;;;;;7.01;100.00;99851.75;5051449;28;20015;-72
2023/02/01 01:33:36;;;;;;;;;;;;;;;7.03;100.00;99839.81;5070872;28;20587;-71
2023/02/01 01:36:01;;;;;;;;;;;;;;;6.56;100.00;99817.78;5054641;28;19980;-71
2023/02/01 01:38:26;;;;;;;;;;;;;;;6.78;100.00;99816.00;5052107;28;19920;-71
2023/02/01 01:40:51;;;;;;;;;;;;;;;6.70;100.00;99796.41;5072111;28;20305;-71
2023/02/01 01:43:19;;;;;;;;;;;;;;;6.69;100.00;99781.88;5051881;28;20713;-71
2023/02/01 01:45:44;;;;;;;;;;;;;;;6.76;100.00;99756.28;5071512;28;19920;-71
2023/02/01 01:48:12;;;;;;;;;;;;;;;6.87;100.00;99737.44;5052716;28;20132;-71
2023/02/01 01:50:39;;;;;;;;;;;;;;;6.94;100.00;99712.66;5055452;28;19920;-71
2023/02/01 01:53:04;;;;;;;;;;;;;;;6.51;100.00;99697.50;5051952;28;19964;-71
2023/02/01 01:55:31;;;;;;;;;;;;;;;6.61;100.00;99688.94;5052064;28;19916;-71
2023/02/01 01:58:00;;;;;;;;;;;;;;;6.66;100.00;99666.75;5069974;28;19920;-71
2023/02/01 02:00:25;;;;;;;;;;;;;;;7.03;100.00;99661.38;5068611;28;20023;-71
2023/02/01 02:02:53;;;;;;;;;;;;;;;6.92;100.00;99645.25;5069691;28;19981;-71
2023/02/01 02:05:18;;;;;;;;;;;;;;;6.98;100.00;99627.28;5050476;28;19920;-71
2023/02/01 02:07:45;;;;;;;;;;;;;;;6.72;100.00;99603.56;5069944;28;20389;-71
2023/02/01 02:10:11;;;;;;;;;;;;;;;6.74;100.00;99581.38;5052460;28;20019;-71
2023/02/01 02:12:40;;;;;;;;;;;;;;;7.13;100.00;99573.34;5052444;28;20014;-71
2023/02/01 02:15:06;;;;;;;;;;;;;;;6.84;100.00;99557.38;5052820;28;19916;-71
2023/02/01 02:17:36;;;;;;;;;;;;;;;6.98;100.00;99549.59;5070108;28;19920;-71
2023/02/01 02:20:10;;;;;;;;;;;;;;;7.10;100.00;99550.34;5052192;28;19943;-71
2023/02/01 02:22:54;;;;;;;;;;;;;;;6.67;100.00;99535.34;5070310;28;19922;-71
2023/02/01 02:25:38;;;;;;;;;;;;;;;7.10;100.00;99550.34;5070630;28;19989;-71
2023/02/01 02:28:03;;;;;;;;;;;;;;;6.75;100.00;99529.31;5069934;28;19920;-72
2023/02/01 02:30:47;;;;;;;;;;;;;;;6.58;100.00;99514.09;5069598;28;20377;-71
2023/02/01 02:33:30;;;;;;;;;;;;;;;6.92;100.00;99514.66;5070442;28;20290;-72
2023/02/01 02:35:59;;;;;;;;;;;;;;;6.70;100.00;99509.75;5070732;28;20502;-71
2023/02/01 02:38:36;;;;;;;;;;;;;;;6.50;100.00;99514.16;5050354;28;19920;-72
2023/02/01 02:41:05;;;;;;;;;;;;;;;6.94;100.00;99523.19;5053245;28;20270;-72
2023/02/01 02:49:29;;;;;;;;;;;;;;;6.93;100.00;99525.75;5053358;28;20796;-72
2023/02/01 02:55:13;;;;;;;;;;;;;;;6.99;100.00;99541.06;5038809;28;19916;-71
2023/02/01 03:05:51;;;;;;;;;;;;;;;6.64;100.00;99539.66;5056189;28;19974;-71
2023/02/01 03:08:20;;;;;;;;;;;;;;;6.88;100.00;99546.25;5049671;28;20019;-71
2023/02/01 03:10:51;;;;;;;;;;;;;;;6.83;100.00;99553.97;5070453;28;20335;-71
2023/02/01 03:13:32;;;;;;;;;;;;;;;6.84;100.00;99552.25;5050121;28;19925;-71
2023/02/01 03:16:17;;;;;;;;;;;;;;;6.43;100.00;99540.63;5071058;28;19913;-71
2023/02/01 03:18:53;;;;;;;;;;;;;;;6.80;100.00;99550.63;5069190;28;20587;-71
2023/02/01 03:21:38;;;;;;;;;;;;;;;6.63;100.00;99533.66;5067967;28;19930;-71
2023/02/01 03:24:32;;;;;;;;;;;;;;;6.96;100.00;99551.34;5068873;28;19916;-71
2023/02/01 03:26:58;;;;;;;;;;;;;;;6.78;100.00;99532.69;5061522;28;19919;-71
2023/02/01 03:29:24;;;;;;;;;;;;;;;6.61;100.00;99525.13;5051379;28;19978;-71
2023/02/01 03:31:49;;;;;;;;;;;;;;;6.67;100.00;99519.97;5051488;28;19993;-71
2023/02/01 03:34:14;;;;;;;;;;;;;;;7.07;100.00;99522.22;5049376;28;19923;-71
2023/02/01 03:36:41;;;;;;;;;;;;;;;6.67;100.00;99498.66;5068326;28;19966;-71
2023/02/01 03:39:16;;;;;;;;;;;;;;;6.87;100.00;99501.06;5067641;28;20286;-71
2023/02/01 03:41:53;;;;;;;;;;;;;;;6.56;100.00;99491.06;5051130;28;19920;-71
2023/02/01 03:44:27;;;;;;;;;;;;;;;6.37;100.00;99494.63;5053338;28;19916;-71
2023/02/01 03:46:54;;;;;;;;;;;;;;;6.67;100.00;99491.00;5069028;28;19919;-71
2023/02/01 03:49:21;;;;;;;;;;;;;;;6.44;100.00;99491.16;5049156;28;19982;-71
2023/02/01 03:51:46;;;;;;;;;;;;;;;6.58;100.00;99497.03;5049849;28;19929;-71
2023/02/01 03:54:12;;;;;;;;;;;;;;;6.57;100.00;99497.91;5051570;28;19923;-71
2023/02/01 03:56:37;;;;;;;;;;;;;;;6.91;100.00;99507.81;5048634;28;19913;-71
2023/02/01 03:59:03;;;;;;;;;;;;;;;6.75;100.00;99512.25;5051108;28;19913;-71
2023/02/01 04:01:29;;;;;;;;;;;;;;;6.56;100.00;99491.06;5067841;28;19924;-71
2023/02/01 04:03:54;;;;;;;;;;;;;;;6.38;100.00;99492.03;5050510;28;19916;-71
2023/02/01 04:06:19;;;;;;;;;;;;;;;6.43;100.00;99484.34;5069730;28;20521;-72
2023/02/01 04:08:44;;;;;;;;;;;;;;;6.85;100.00;99492.53;5050081;28;19920;-71
2023/02/01 04:11:10;;;;;;;;;;;;;;;6.86;100.00;99489.09;5069622;28;20817;-71
2023/02/01 04:13:35;;;;;;;;;;;;;;;6.27;100.00;99452.91;5067867;28;20359;-71
2023/02/01 04:16:00;;;;;;;;;;;;;;;6.62;100.00;99473.09;5043054;28;20366;-71
2023/02/01 04:18:25;;;;;;;;;;;;;;;6.41;100.00;99475.81;5069289;28;20402;-72
2023/02/01 04:20:51;;;;;;;;;;;;;;;6.72;100.00;99483.25;5050409;28;20393;-72
2023/02/01 04:23:16;;;;;;;;;;;;;;;6.73;100.00;99485.81;5068565;28;20043;-71
2023/02/01 04:25:41;;;;;;;;;;;;;;;6.47;100.00;99480.91;5068257;28;20578;-71
2023/02/01 04:28:06;;;;;;;;;;;;;;;6.71;100.00;99474.75;5068909;28;20332;-76
2023/02/01 04:30:32;;;;;;;;;;;;;;;6.45;100.00;99470.69;5046406;28;19966;-72
2023/02/01 04:32:57;;;;;;;;;;;;;;;6.77;100.00;99473.81;5072945;28;19982;-71
2023/02/01 04:35:22;;;;;;;;;;;;;;;6.40;100.00;99453.66;5073250;28;20286;-72
2023/02/01 04:37:47;;;;;;;;;;;;;;;6.45;100.00;99451.91;5073348;28;20822;-76
2023/02/01 04:40:13;;;;;;;;;;;;;;;6.35;100.00;99445.19;5054264;28;20286;-76
2023/02/01 04:42:38;;;;;;;;;;;;;;;6.34;100.00;99434.13;5075084;28;19928;-76
2023/02/01 04:45:03;;;;;;;;;;;;;;;6.82;100.00;99436.22;5048436;28;19917;-76
2023/02/01 04:47:29;;;;;;;;;;;;;;;7.01;100.00;99447.16;5055546;28;19924;-75
2023/02/01 04:49:54;;;;;;;;;;;;;;;6.85;100.00;99431.09;5071644;28;19916;-75
2023/02/01 04:52:19;;;;;;;;;;;;;;;6.70;100.00;99421.84;5070504;28;20026;-75
2023/02/01 04:54:45;;;;;;;;;;;;;;;6.57;100.00;99426.25;5071907;28;19927;-75
2023/02/01 04:57:11;;;;;;;;;;;;;;;6.83;100.00;99418.31;5071554;28;19923;-75
2023/02/01 04:59:36;;;;;;;;;;;;;;;6.53;100.00;99416.06;5071325;28;19920;-75
2023/02/01 05:02:01;;;;;;;;;;;;;;;6.47;100.00;99419.50;5072424;28;20417;-74
2023/02/01 05:04:26;;;;;;;;;;;;;;;6.57;100.00;99410.91;5072421;28;19978;-74
2023/02/01 05:06:52;;;;;;;;;;;;;;;6.58;100.00;99422.81;5072493;28;19978;-74
2023/02/01 05:09:17;;;;;;;;;;;;;;;7.25;100.00;99430.66;5071773;28;19931;-74
2023/02/01 05:14:26;;;;;;;;;;;;;;;6.57;100.00;99416.00;5057163;28;19931;-74
2023/02/01 05:16:51;;;;;;;;;;;;;;;6.83;100.00;99422.59;5072048;28;19916;-74
2023/02/01 05:19:17;;;;;;;;;;;;;;;6.52;100.00;99438.22;5070163;28;19962;-74
2023/02/01 05:21:42;;;;;;;;;;;;;;;6.55;100.00;99443.31;5069920;28;19912;-74
2023/02/01 05:24:12;;;;;;;;;;;;;;;6.46;100.00;99434.00;5071540;28;20398;-74
2023/02/01 05:26:38;;;;;;;;;;;;;;;6.19;100.00;99427.41;5053292;28;19985;-74
2023/02/01 05:29:04;;;;;;;;;;;;;;;6.31;100.00;99440.94;5053359;28;20505;-76
2023/02/01 05:31:29;;;;;;;;;;;;;;;6.39;100.00;99462.22;5071870;28;19942;-74
2023/02/01 05:33:54;;;;;;;;;;;;;;;6.40;100.00;99477.53;5053266;28;20412;-74
2023/02/01 05:36:19;;;;;;;;;;;;;;;6.52;100.00;99491.94;5054685;28;20313;-74
2023/02/01 05:38:44;;;;;;;;;;;;;;;6.24;100.00;99487.03;5069320;28;19920;-74
2023/02/01 05:41:10;;;;;;;;;;;;;;;6.09;100.00;99487.16;5071675;28;20376;-74
2023/02/01 05:43:35;;;;;;;;;;;;;;;6.16;100.00;99491.38;5071473;28;20327;-74
2023/02/01 05:46:00;;;;;;;;;;;;;;;6.47;100.00;99497.09;5052871;28;20283;-74
2023/02/01 05:48:25;;;;;;;;;;;;;;;6.09;100.00;99499.94;5070685;28;19923;-74
2023/02/01 05:50:51;;;;;;;;;;;;;;;6.31;100.00;99502.34;5052436;28;19956;-75
2023/02/01 05:53:16;;;;;;;;;;;;;;;6.23;100.00;99521.16;5049625;28;19956;-74
2023/02/01 05:55:41;;;;;;;;;;;;;;;6.45;100.00;99513.31;5073097;28;19916;-75
2023/02/01 05:58:07;;;;;;;;;;;;;;;6.23;100.00;99507.53;5069693;28;19920;-74
2023/02/01 06:00:32;;;;;;;;;;;;;;;6.50;100.00;99526.94;5070391;28;19974;-75
2023/02/01 06:02:57;;;;;;;;;;;;;;;6.28;100.00;99510.88;5052657;28;19923;-74
2023/02/01 06:05:23;;;;;;;;;;;;;;;6.50;100.00;99521.84;5053090;28;19927;-74
2023/02/01 06:07:49;;;;;;;;;;;;;;;6.17;100.00;99510.94;5053887;28;19932;-75
2023/02/01 06:10:15;;;;;;;;;;;;;;;6.24;100.00;99533.06;5052323;28;20003;-74
2023/02/01 06:12:40;;;;;;;;;;;;;;;6.46;100.00;99536.34;5070480;28;20011;-74
2023/02/01 06:15:06;;;;;;;;;;;;;;;6.06;100.00;99515.28;5070487;28;19916;-74
2023/02/01 06:17:31;;;;;;;;;;;;;;;6.38;100.00;99524.47;5072493;28;20424;-74
2023/02/01 06:19:56;;;;;;;;;;;;;;;6.14;100.00;99513.53;5069697;28;19955;-74
2023/02/01 06:22:22;;;;;;;;;;;;;;;6.41;100.00;99516.75;5070551;28;19916;-74
2023/02/01 06:24:47;;;;;;;;;;;;;;;6.45;100.00;99508.19;5071245;28;19982;-74
2023/02/01 06:27:13;;;;;;;;;;;;;;;6.28;100.00;99511.72;5052043;28;20322;-74
2023/02/01 06:29:38;;;;;;;;;;;;;;;6.36;100.00;99513.38;5070159;28;19912;-74
2023/02/01 06:32:03;;;;;;;;;;;;;;;6.55;100.00;99529.47;5070693;28;20388;-74
2023/02/01 06:34:29;;;;;;;;;;;;;;;6.34;100.00;99522.78;5051319;28;19913;-74
2023/02/01 06:36:54;;;;;;;;;;;;;;;6.05;100.00;99519.53;5070866;28;20375;-74
2023/02/01 06:39:20;;;;;;;;;;;;;;;6.17;100.00;99533.97;5071058;28;19997;-74
2023/02/01 06:41:46;;;;;;;;;;;;;;;6.36;100.00;99549.19;5052560;28;19916;-74
2023/02/01 06:44:11;;;;;;;;;;;;;;;6.10;100.00;99537.41;5070386;28;19916;-74
2023/02/01 06:46:36;;;;;;;;;;;;;;;6.38;100.00;99529.56;5069139;28;19916;-74
2023/02/01 06:49:01;;;;;;;;;;;;;;;6.32;100.00;99537.28;5070934;28;19920;-74
2023/02/01 06:51:28;;;;;;;;;;;;;;;6.40;100.00;99525.31;5068790;28;19920;-74
2023/02/01 06:53:53;;;;;;;;;;;;;;;6.75;100.00;99539.53;5044323;28;19920;-74
2023/02/01 06:56:18;;;;;;;;;;;;;;;6.47;100.00;99526.94;5069551;28;20203;-74
2023/02/01 06:58:44;;;;;;;;;;;;;;;6.25;100.00;99529.66;5049652;28;19916;-74
2023/02/01 07:01:10;;;;;;;;;;;;;;;6.20;100.00;99539.06;5043615;28;19916;-74
2023/02/01 07:03:35;;;;;;;;;;;;;;;6.45;100.00;99565.38;5052048;28;19920;-74
2023/02/01 07:06:01;;;;;;;;;;;;;;;5.82;100.00;99546.91;5027479;28;20570;-74
2023/02/01 07:08:29;;;;;;;;;;;;;;;6.30;100.00;99585.06;5068164;28;19995;-74
2023/02/01 07:10:54;;;;;;;;;;;;;;;6.37;100.00;99586.72;5052346;28;19967;-74
2023/02/01 07:13:20;;;;;;;;;;;;;;;5.93;100.00;99596.28;5069536;28;19956;-74
2023/02/01 07:15:47;;;;;;;;;;;;;;;6.05;100.00;99585.19;5044185;28;19959;-74
2023/02/01 07:18:14;;;;;;;;;;;;;;;5.87;100.00;99602.25;5051642;28;19985;-75
2023/02/01 07:20:39;;;;;;;;;;;;;;;6.08;100.00;99615.84;5051313;28;19921;-74
2023/02/01 07:23:04;;;;;;;;;;;;;;;6.28;100.00;99629.38;5051164;28;19927;-74
2023/02/01 07:25:29;;;;;;;;;;;;;;;6.17;100.00;99623.47;5052116;28;19923;-75
2023/02/01 07:27:54;;;;;;;;;;;;;;;6.40;100.00;99622.50;5069375;28;19920;-74
2023/02/01 07:30:20;;;;;;;;;;;;;;;6.32;100.00;99619.13;5068761;28;19920;-74
2023/02/01 07:32:45;;;;;;;;;;;;;;;6.40;100.00;99622.50;5069593;28;19922;-74
2023/02/01 07:35:10;;;;;;;;;;;;;;;6.00;100.00;99617.59;5069902;28;19922;-74
2023/02/01 07:37:35;;;;;;;;;;;;;;;6.47;100.00;99635.25;5069236;28;19920;-74
2023/02/01 07:40:01;;;;;;;;;;;;;;;6.25;100.00;99639.66;5070263;28;20329;-74
2023/02/01 07:42:26;;;;;;;;;;;;;;;6.04;100.00;99629.47;5052272;28;20038;-74
2023/02/01 07:44:51;;;;;;;;;;;;;;;6.18;100.00;99642.22;5071634;28;19920;-74
2023/02/01 07:47:16;;;;;;;;;;;;;;;6.35;100.00;99634.47;5067955;28;19916;-73
2023/02/01 07:49:42;;;;;;;;;;;;;;;6.41;100.00;99639.56;5067901;28;19916;-72
2023/02/01 07:52:07;;;;;;;;;;;;;;;6.49;100.00;99633.53;5051359;28;19927;-72
2023/02/01 07:54:32;;;;;;;;;;;;;;;6.20;100.00;99641.38;5049555;28;19940;-71
2023/02/01 07:56:57;;;;;;;;;;;;;;;5.93;100.00;99660.19;5065528;28;20116;-72
2023/02/01 07:59:23;;;;;;;;;;;;;;;6.23;100.00;99669.50;5066095;28;19999;-72
2023/02/01 08:01:48;;;;;;;;;;;;;;;6.43;100.00;99673.66;5066353;28;19929;-72
2023/02/01 08:04:13;;;;;;;;;;;;;;;6.25;100.00;99652.44;5069431;28;19916;-72
2023/02/01 08:06:39;;;;;;;;;;;;;;;6.27;100.00;99655.84;5070638;28;19921;-72
2023/02/01 08:09:04;;;;;;;;;;;;;;;6.44;100.00;99670.25;5071139;28;19998;-72
2023/02/01 08:11:30;;;;;;;;;;;;;;;6.34;100.00;99663.47;5053641;28;19930;-73
2023/02/01 08:13:55;;;;;;;;;;;;;;;6.57;100.00;99668.47;5071736;28;20378;-73
2023/02/01 08:16:21;;;;;;;;;;;;;;;6.43;100.00;99678.78;5071791;28;19982;-73
2023/02/01 08:18:46;;;;;;;;;;;;;;;5.98;100.00;99666.16;5053297;28;19916;-73
2023/02/01 08:21:15;;;;;;;;;;;;;;;6.25;100.00;99675.44;5054175;28;19916;-73
2023/02/01 08:23:41;;;;;;;;;;;;;;;6.63;100.00;99689.78;5053702;28;19916;-73
2023/02/01 08:26:11;;;;;;;;;;;;;;;6.86;100.00;99691.34;5053252;28;19924;-73
2023/02/01 08:28:36;;;;;;;;;;;;;;;6.57;100.00;99674.47;5072535;28;19924;-73
2023/02/01 08:31:06;;;;;;;;;;;;;;;6.48;100.00;99671.94;5053843;28;19916;-73
2023/02/01 08:33:31;;;;;;;;;;;;;;;6.96;100.00;99669.13;5054317;28;20568;-73
2023/02/01 08:35:56;;;;;;;;;;;;;;;6.69;100.00;99651.34;5071347;28;19977;-73
2023/02/01 08:38:21;;;;;;;;;;;;;;;6.45;100.00;99625.88;5070624;28;20602;-73
2023/02/01 08:40:47;;;;;;;;;;;;;;;6.52;100.00;99622.44;5070681;28;20333;-73
2023/02/01 08:43:12;;;;;;;;;;;;;;;6.59;100.00;99642.03;5070755;28;20486;-73
2023/02/01 08:45:37;;;;;;;;;;;;;;;6.52;100.00;99631.81;5045241;28;19923;-73
2023/02/01 08:48:02;;;;;;;;;;;;;;;6.66;100.00;99647.94;5070541;28;19928;-73
2023/02/01 08:50:28;;;;;;;;;;;;;;;6.61;100.00;99652.25;5070692;28;19945;-73
2023/02/01 08:52:53;;;;;;;;;;;;;;;6.64;100.00;99640.31;5069687;28;20240;-73
2023/02/01 08:55:19;;;;;;;;;;;;;;;6.51;100.00;99646.34;5071126;28;19955;-71
2023/02/01 08:57:44;;;;;;;;;;;;;;;6.63;100.00;99641.13;5067921;28;20728;-70
2023/02/01 09:00:15;;;;;;;;;;;;;;;6.35;100.00;99624.25;5070132;28;19923;-70
2023/02/01 09:02:40;;;;;;;;;;;;;;;6.37;100.00;99637.91;5071108;28;20425;-70
2023/02/01 09:05:05;;;;;;;;;;;;;;;6.86;100.00;99653.78;5069452;28;20026;-71
2023/02/01 09:07:31;;;;;;;;;;;;;;;6.63;100.00;99625.78;5070416;28;19920;-70
2023/02/01 09:10:00;;;;;;;;;;;;;;;6.76;100.00;99631.69;5070453;28;20424;-70
2023/02/01 09:12:25;;;;;;;;;;;;;;;6.64;100.00;99612.16;5070028;28;19973;-71
2023/02/01 09:14:51;;;;;;;;;;;;;;;6.94;100.00;99615.34;5051124;28;19916;-70
2023/02/01 09:17:16;;;;;;;;;;;;;;;7.03;100.00;99605.03;5069493;28;19920;-71
2023/02/01 09:19:41;;;;;;;;;;;;;;;7.06;100.00;99597.31;5069818;28;19956;-71
2023/02/01 09:22:06;;;;;;;;;;;;;;;6.77;100.00;99571.94;5070785;28;19920;-71
2023/02/01 09:24:32;;;;;;;;;;;;;;;6.70;100.00;99573.72;5069860;28;19931;-71
2023/02/01 09:26:57;;;;;;;;;;;;;;;7.35;100.00;99583.44;5071238;28;19967;-72
2023/02/01 09:29:22;;;;;;;;;;;;;;;7.23;100.00;99576.72;5069809;28;19973;-72
2023/02/01 09:31:48;;;;;;;;;;;;;;;6.68;100.00;99561.78;5053487;28;19948;-71
2023/02/01 09:34:13;;;;;;;;;;;;;;;6.91;100.00;99551.34;5071815;28;21007;-72
2023/02/01 09:36:38;;;;;;;;;;;;;;;7.01;100.00;99550.44;5070963;28;20344;-71
2023/02/01 09:39:03;;;;;;;;;;;;;;;7.01;100.00;99554.72;5071517;28;20447;-71
2023/02/01 09:41:47;;;;;;;;;;;;;;;7.10;100.00;99552.91;5071395;28;19959;-71
2023/02/01 09:44:13;;;;;;;;;;;;;;;6.99;100.00;99531.66;5069399;28;20925;-70
2023/02/01 09:46:38;;;;;;;;;;;;;;;6.56;100.00;99520.94;5071604;28;19960;-70
2023/02/01 09:49:04;;;;;;;;;;;;;;;7.52;100.00;99545.66;5071322;28;19921;-71
2023/02/01 09:51:34;;;;;;;;;;;;;;;6.77;100.00;99517.34;5069593;28;19957;-70
2023/02/01 09:54:08;;;;;;;;;;;;;;;7.05;100.00;99531.63;5071963;28;19950;-70
2023/02/01 09:56:46;;;;;;;;;;;;;;;7.04;100.00;99529.91;5050796;28;20436;-70
2023/02/01 09:59:23;;;;;;;;;;;;;;;6.98;100.00;99529.97;5070892;28;20392;-71
2023/02/01 10:01:48;;;;;;;;;;;;;;;7.12;100.00;99543.50;5070836;28;19920;-70
2023/02/01 10:04:14;;;;;;;;;;;;;;;7.01;100.00;99535.06;5051744;28;19970;-70
2023/02/01 10:06:57;;;;;;;;;;;;;;;7.15;100.00;99541.78;5053021;28;19912;-71
2023/02/01 10:09:31;;;;;;;;;;;;;;;7.41;100.00;99537.25;5052592;28;20013;-71
2023/02/01 10:12:15;;;;;;;;;;;;;;;7.46;100.00;99527.78;5071164;28;19928;-71
2023/02/01 10:14:40;;;;;;;;;;;;;;;7.35;100.00;99521.94;5070089;28;19915;-70
2023/02/01 10:17:05;;;;;;;;;;;;;;;6.87;100.00;99516.41;5073095;28;19927;-70
2023/02/01 10:19:34;;;;;;;;;;;;;;;7.40;100.00;99532.97;5069332;28;20322;-71
2023/02/01 10:22:00;;;;;;;;;;;;;;;7.39;100.00;99515.91;5051486;28;19935;-70
2023/02/01 10:24:38;;;;;;;;;;;;;;;7.38;100.00;99508.25;5070195;28;19920;-70
2023/02/01 10:27:10;;;;;;;;;;;;;;;7.06;100.00;99491.47;5069987;28;20278;-70
2023/02/01 10:29:39;;;;;;;;;;;;;;;7.56;100.00;99496.94;5051609;28;19912;-70
2023/02/01 10:32:12;;;;;;;;;;;;;;;7.41;100.00;99506.50;5052487;28;19932;-70
2023/02/01 10:34:37;;;;;;;;;;;;;;;7.15;100.00;99488.00;5052505;28;19920;-70
2023/02/01 10:37:18;;;;;;;;;;;;;;;7.19;100.00;99505.88;5071036;28;19920;-70
2023/02/01 10:39:43;;;;;;;;;;;;;;;7.05;100.00;99500.88;5050822;28;19916;-70
2023/02/01 10:42:09;;;;;;;;;;;;;;;7.07;100.00;99504.28;5071529;28;20282;-70
2023/02/01 10:44:34;;;;;;;;;;;;;;;8.11;100.00;99527.84;5051149;28;19927;-71
2023/02/01 10:46:59;;;;;;;;;;;;;;;7.41;100.00;99503.06;5069834;28;19916;-70
2023/02/01 10:49:38;;;;;;;;;;;;;;;7.49;100.00;99502.13;5068641;28;19917;-70
2023/02/01 10:52:14;;;;;;;;;;;;;;;7.37;100.00;99483.47;5051879;28;20094;-70
2023/02/01 10:54:40;;;;;;;;;;;;;;;7.30;100.00;99478.44;5069563;28;19912;-70
2023/02/01 10:57:09;;;;;;;;;;;;;;;6.94;100.00;99469.41;5050245;28;20009;-70
2023/02/01 10:59:36;;;;;;;;;;;;;;;7.68;100.00;99489.09;5051644;28;19982;-70
2023/02/01 11:02:02;;;;;;;;;;;;;;;7.74;100.00;99489.84;5068009;28;19923;-70
2023/02/01 11:04:28;;;;;;;;;;;;;;;7.51;100.00;99482.44;5051124;28;19921;-70
2023/02/01 11:06:55;;;;;;;;;;;;;;;7.45;100.00;99479.94;5053428;28;20548;-70
2023/02/01 11:09:21;;;;;;;;;;;;;;;7.56;100.00;99481.56;5067463;28;19916;-70
2023/02/01 11:11:46;;;;;;;;;;;;;;;7.54;100.00;99495.22;5070688;28;19923;-70
2023/02/01 11:14:16;;;;;;;;;;;;;;;7.42;100.00;99484.28;5070295;28;19926;-70
2023/02/01 11:16:41;;;;;;;;;;;;;;;7.21;100.00;99475.13;5069574;28;19920;-70
2023/02/01 11:19:06;;;;;;;;;;;;;;;7.78;100.00;99490.69;5053339;28;19931;-70
2023/02/01 11:21:32;;;;;;;;;;;;;;;7.49;100.00;99471.38;5066233;28;19924;-70
2023/02/01 11:24:03;;;;;;;;;;;;;;;7.79;100.00;99487.22;5048042;28;20517;-70
2023/02/01 11:26:29;;;;;;;;;;;;;;;7.50;100.00;99473.09;5048835;28;19990;-70
2023/02/01 11:29:01;;;;;;;;;;;;;;;7.36;100.00;99474.94;5067758;28;19920;-70
2023/02/01 11:31:27;;;;;;;;;;;;;;;7.45;100.00;99464.56;5048224;28;20337;-70
2023/02/01 11:33:54;;;;;;;;;;;;;;;6.98;100.00;99447.16;5047884;28;19916;-69
2023/02/01 11:36:21;;;;;;;;;;;;;;;7.48;100.00;99462.00;5066426;28;19920;-70
2023/02/01 11:38:51;;;;;;;;;;;;;;;7.16;100.00;99438.44;5070806;28;20530;-69
2023/02/01 11:41:19;;;;;;;;;;;;;;;7.80;100.00;99454.75;5056056;28;20373;-70
2023/02/01 11:43:51;;;;;;;;;;;;;;;7.38;100.00;99428.81;5076192;28;19927;-70
2023/02/01 11:46:20;;;;;;;;;;;;;;;7.24;100.00;99411.03;5055081;28;19923;-70
2023/02/01 11:48:45;;;;;;;;;;;;;;;7.30;100.00;99404.13;5071610;28;19916;-70
2023/02/01 11:51:10;;;;;;;;;;;;;;;7.12;100.00;99394.94;5073721;28;19922;-70
2023/02/01 11:53:41;;;;;;;;;;;;;;;6.89;100.00;99402.06;5073925;28;19934;-70
2023/02/01 11:56:27;;;;;;;;;;;;;;;7.13;100.00;99414.56;5074892;28;20558;-70
2023/02/01 11:59:08;;;;;;;;;;;;;;;7.21;100.00;99393.16;5056024;28;19916;-70
2023/02/01 12:01:33;;;;;;;;;;;;;;;7.05;100.00;99393.31;5055674;28;19916;-70
2023/02/01 12:04:21;;;;;;;;;;;;;;;7.26;100.00;99404.19;5073658;28;19931;-70
2023/02/01 12:06:51;;;;;;;;;;;;;;;7.63;100.00;99413.97;5062942;28;19920;-70
2023/02/01 12:09:35;;;;;;;;;;;;;;;7.86;100.00;99409.34;5055334;28;19999;-70
2023/02/01 12:12:06;;;;;;;;;;;;;;;8.46;100.00;99405.03;5074386;28;19920;-70
2023/02/01 12:14:40;;;;;;;;;;;;;;;7.28;100.00;99369.16;5073539;28;20015;-71
2023/02/01 12:17:20;;;;;;;;;;;;;;;7.56;100.00;99363.66;5072713;28;20106;-70
2023/02/01 12:20:04;;;;;;;;;;;;;;;7.75;100.00;99359.94;5073598;28;19927;-70
2023/02/01 12:22:49;;;;;;;;;;;;;;;7.68;100.00;99355.78;5074031;28;19973;-70
2023/02/01 12:25:14;;;;;;;;;;;;;;;8.06;100.00;99338.97;5074243;28;20023;-70
2023/02/01 12:27:45;;;;;;;;;;;;;;;8.46;100.00;99343.44;5073846;28;20015;-70
2023/02/01 12:30:15;;;;;;;;;;;;;;;8.59;100.00;99319.25;5073219;28;19973;-71
2023/02/01 12:32:49;;;;;;;;;;;;;;;7.50;100.00;99309.06;5055536;28;19920;-70
2023/02/01 12:35:26;;;;;;;;;;;;;;;7.17;100.00;99325.75;5073267;28;19916;-70
2023/02/01 12:37:55;;;;;;;;;;;;;;;6.97;100.00;99353.31;5057262;28;19931;-70
2023/02/01 12:40:43;;;;;;;;;;;;;;;7.61;100.00;99375.53;5075352;28;20031;-71
2023/02/01 12:43:08;;;;;;;;;;;;;;;7.30;100.00;99377.69;5055470;28;19916;-70
2023/02/01 12:45:45;;;;;;;;;;;;;;;6.95;100.00;99401.13;5072070;28;19923;-70
2023/02/01 12:48:19;;;;;;;;;;;;;;;7.19;100.00;99441.84;5056230;28;20022;-71
2023/02/01 12:50:49;;;;;;;;;;;;;;;6.88;100.00;99441.31;5051697;28;19916;-70
2023/02/01 12:53:21;;;;;;;;;;;;;;;6.95;100.00;99462.56;5053443;28;19920;-71
2023/02/01 12:55:49;;;;;;;;;;;;;;;6.73;100.00;99492.63;5053041;28;20039;-71
2023/02/01 12:58:20;;;;;;;;;;;;;;;6.89;100.00;99520.66;5070156;28;19973;-71
2023/02/01 13:00:58;;;;;;;;;;;;;;;6.90;100.00;99524.91;5055161;28;20007;-70
2023/02/01 13:03:23;;;;;;;;;;;;;;;6.63;100.00;99536.22;5073126;28;20429;-72
2023/02/01 13:05:54;;;;;;;;;;;;;;;6.72;100.00;99542.97;5073024;28;20003;-71
2023/02/01 13:08:22;;;;;;;;;;;;;;;7.28;100.00;99551.03;5045469;28;19920;-71
2023/02/01 13:10:57;;;;;;;;;;;;;;;6.77;100.00;99540.38;5053814;28;19917;-71